Time;durP1;ratioP1;P1;durP2;ratioP2;P2;SDS_P1;SDS_P2;PMS_P1;PMS_P2;Temp;Humidity;BMP_temperature;BMP_pressure;BME280_temperature;BME280_humidity;BME280_pressure;Samples;Min_cycle;Max_cycle;Signal;HPM_P1;HPM_P2
2023/07/26 00:02:13;;;;;;;6.63;4.00;;;13.90;99.90;;;;;;5013049;28;20184;-71
2023/07/26 00:04:39;;;;;;;5.03;3.40;;;13.90;99.90;;;;;;5014590;28;20620;-71
2023/07/26 00:07:05;;;;;;;4.80;3.50;;;13.90;99.90;;;;;;5014725;28;20183;-71
2023/07/26 00:09:31;;;;;;;8.73;4.57;;;13.90;99.90;;;;;;5013250;28;20172;-72
2023/07/26 00:11:56;;;;;;;3.80;3.50;;;14.00;99.90;;;;;;5014327;28;20220;-70
2023/07/26 00:14:22;;;;;;;4.07;3.77;;;14.00;99.90;;;;;;5014321;28;20183;-71
2023/07/26 00:16:49;;;;;;;6.37;4.23;;;14.00;99.90;;;;;;5014632;28;20518;-71
2023/07/26 00:19:16;;;;;;;5.13;3.70;;;14.00;99.90;;;;;;5014387;28;20265;-71
2023/07/26 00:21:41;;;;;;;3.70;3.30;;;14.00;99.90;;;;;;5014217;28;20243;-71
2023/07/26 00:24:07;;;;;;;5.17;3.70;;;14.00;99.90;;;;;;5013926;28;20234;-71
2023/07/26 00:26:33;;;;;;;4.07;3.77;;;14.00;99.90;;;;;;5014279;28;20172;-71
2023/07/26 00:28:58;;;;;;;4.30;3.90;;;14.00;99.90;;;;;;5035598;23;20226;-85
2023/07/26 00:31:24;;;;;;;4.13;3.77;;;14.00;99.90;;;;;;5034212;28;20183;-86
2023/07/26 00:33:49;;;;;;;5.87;4.37;;;14.00;99.90;;;;;;5034065;28;20186;-86
2023/07/26 00:36:15;;;;;;;3.57;3.33;;;14.10;99.90;;;;;;5035359;28;20194;-86
2023/07/26 00:38:40;;;;;;;4.43;3.73;;;14.10;99.90;;;;;;5036224;28;20209;-86
2023/07/26 00:41:07;;;;;;;4.00;3.57;;;14.10;99.90;;;;;;5038760;28;20209;-85
2023/07/26 00:43:34;;;;;;;5.10;3.87;;;14.10;99.90;;;;;;5036108;28;20203;-85
2023/07/26 00:45:59;;;;;;;4.00;3.70;;;14.20;99.90;;;;;;5017405;28;20171;-86
2023/07/26 00:48:25;;;;;;;5.33;3.70;;;14.20;99.90;;;;;;5033637;28;20279;-86
2023/07/26 00:50:52;;;;;;;5.30;3.40;;;14.30;99.90;;;;;;5033732;28;20203;-85
2023/07/26 00:53:18;;;;;;;3.97;3.67;;;14.30;99.90;;;;;;5032097;28;20684;-85
2023/07/26 00:55:45;;;;;;;4.63;4.23;;;14.40;99.90;;;;;;5033643;28;20176;-86
2023/07/26 00:58:11;;;;;;;5.30;3.90;;;14.40;99.90;;;;;;5034550;28;20622;-85
2023/07/26 01:00:40;;;;;;;5.10;3.97;;;14.40;99.90;;;;;;5035299;28;20175;-85
2023/07/26 01:03:06;;;;;;;4.83;3.50;;;14.40;99.90;;;;;;5033320;28;20176;-85
2023/07/26 01:05:42;;;;;;;4.23;3.50;;;14.50;99.90;;;;;;5033324;28;20221;-86
2023/07/26 01:08:31;;;;;;;3.50;3.30;;;14.50;99.90;;;;;;5032957;23;20723;-75
2023/07/26 01:11:04;;;;;;;5.10;3.50;;;14.50;99.90;;;;;;5013459;28;20665;-75
2023/07/26 01:13:47;;;;;;;4.93;3.40;;;14.50;99.90;;;;;;5013127;28;20186;-75
2023/07/26 01:16:14;;;;;;;4.83;3.30;;;14.60;99.90;;;;;;5013403;28;20168;-72
2023/07/26 01:18:39;;;;;;;3.53;3.30;;;14.60;99.90;;;;;;5013241;28;20192;-73
2023/07/26 01:21:05;;;;;;;4.13;3.53;;;14.60;99.90;;;;;;5013365;28;20184;-73
2023/07/26 01:23:31;;;;;;;4.77;3.57;;;14.60;99.90;;;;;;5011226;28;20204;-72
2023/07/26 01:25:56;;;;;;;3.80;3.30;;;14.60;99.90;;;;;;5013203;28;20168;-74
2023/07/26 01:28:22;;;;;;;3.70;3.40;;;14.60;99.90;;;;;;5011718;28;20279;-74
2023/07/26 01:30:49;;;;;;;4.17;3.87;;;14.60;99.90;;;;;;5013046;28;20176;-73
2023/07/26 01:33:17;;;;;;;3.80;3.50;;;14.50;99.90;;;;;;5012525;28;20167;-73
2023/07/26 01:35:43;;;;;;;4.23;3.93;;;14.50;99.90;;;;;;5013021;28;20665;-74
2023/07/26 01:38:11;;;;;;;4.23;3.80;;;14.50;99.90;;;;;;5011516;28;20275;-73
2023/07/26 01:40:37;;;;;;;4.07;3.67;;;14.60;99.90;;;;;;5012981;28;20672;-74
2023/07/26 01:43:03;;;;;;;6.57;4.07;;;14.60;99.90;;;;;;5012269;28;20626;-74
2023/07/26 01:45:29;;;;;;;4.20;3.93;;;14.60;99.90;;;;;;5012748;28;20187;-74
2023/07/26 01:47:54;;;;;;;5.27;4.03;;;14.60;99.90;;;;;;5012415;28;20211;-74
2023/07/26 01:50:20;;;;;;;4.13;3.83;;;14.60;99.90;;;;;;5012665;28;20168;-73
2023/07/26 01:52:46;;;;;;;3.70;3.50;;;14.60;99.90;;;;;;5012155;28;20756;-73
2023/07/26 01:55:11;;;;;;;5.23;4.20;;;14.60;99.90;;;;;;5012630;28;20169;-74
2023/07/26 01:57:37;;;;;;;6.10;3.80;;;14.60;99.90;;;;;;5012353;28;20184;-74
2023/07/26 02:00:04;;;;;;;3.63;3.43;;;14.50;99.90;;;;;;5012594;28;20173;-74
2023/07/26 02:02:30;;;;;;;7.97;3.97;;;14.60;99.90;;;;;;5012522;28;20164;-73
2023/07/26 02:04:55;;;;;;;4.00;3.70;;;14.50;99.90;;;;;;5010459;28;20253;-74
2023/07/26 02:07:21;;;;;;;4.03;3.63;;;14.60;99.90;;;;;;5011689;28;20184;-74
2023/07/26 02:09:47;;;;;;;5.40;3.90;;;14.50;99.90;;;;;;5011242;28;20168;-74
2023/07/26 02:12:12;;;;;;;7.13;4.20;;;14.50;99.90;;;;;;5011710;28;20172;-74
2023/07/26 02:14:38;;;;;;;4.40;4.10;;;14.50;99.90;;;;;;5012272;28;20180;-74
2023/07/26 02:17:04;;;;;;;4.27;3.97;;;14.40;99.90;;;;;;5010990;28;20512;-74
2023/07/26 02:19:29;;;;;;;4.57;4.10;;;14.40;99.90;;;;;;5011890;28;20196;-74
2023/07/26 02:21:55;;;;;;;4.20;3.80;;;14.40;99.90;;;;;;5011941;28;20703;-74
2023/07/26 02:24:21;;;;;;;4.77;3.83;;;14.40;99.90;;;;;;5011988;28;20318;-74
2023/07/26 02:26:46;;;;;;;4.43;4.03;;;14.40;99.90;;;;;;5010834;28;20172;-73
2023/07/26 02:29:12;;;;;;;4.60;4.20;;;14.40;99.90;;;;;;5011975;28;20279;-75
2023/07/26 02:31:38;;;;;;;5.50;4.60;;;14.40;99.90;;;;;;5011716;28;20175;-74
2023/07/26 02:34:03;;;;;;;6.27;3.30;;;14.40;99.90;;;;;;5011787;28;20254;-74
2023/07/26 02:36:29;;;;;;;4.97;4.00;;;14.40;99.90;;;;;;5012001;28;20172;-74
2023/07/26 02:38:54;;;;;;;5.67;3.90;;;14.40;99.90;;;;;;5010658;28;20222;-74
2023/07/26 02:41:20;;;;;;;4.17;3.90;;;14.40;99.90;;;;;;5009976;28;20176;-74
2023/07/26 02:43:45;;;;;;;6.93;3.90;;;14.40;99.90;;;;;;5011719;28;20266;-74
2023/07/26 02:46:11;;;;;;;5.20;4.40;;;14.30;99.90;;;;;;5011784;28;20532;-73
2023/07/26 02:48:37;;;;;;;4.23;3.87;;;14.30;99.90;;;;;;5011838;28;20215;-74
2023/07/26 02:51:02;;;;;;;6.37;3.93;;;14.30;99.90;;;;;;5011805;28;20177;-74
2023/07/26 02:53:28;;;;;;;4.23;3.93;;;14.40;99.90;;;;;;5010103;28;20686;-74
2023/07/26 02:55:54;;;;;;;4.07;3.70;;;14.30;99.90;;;;;;5010643;28;20187;-74
2023/07/26 02:58:19;;;;;;;7.53;4.40;;;14.30;99.90;;;;;;5011718;28;20565;-73
2023/07/26 03:00:45;;;;;;;5.60;4.30;;;14.30;99.90;;;;;;5011848;28;20172;-74
2023/07/26 03:03:11;;;;;;;4.87;4.27;;;14.30;99.90;;;;;;5011330;28;20219;-74
2023/07/26 03:05:37;;;;;;;5.53;5.03;;;14.30;99.90;;;;;;5011835;28;20184;-74
2023/07/26 03:08:03;;;;;;;5.13;4.73;;;14.30;99.90;;;;;;5011472;28;20211;-74
2023/07/26 03:10:28;;;;;;;4.60;4.17;;;14.20;99.90;;;;;;5011476;28;20184;-74
2023/07/26 03:12:55;;;;;;;4.97;4.47;;;14.20;99.90;;;;;;5011377;28;20200;-74
2023/07/26 03:15:21;;;;;;;9.53;4.03;;;14.20;99.90;;;;;;5011598;28;20261;-74
2023/07/26 03:17:46;;;;;;;6.83;4.53;;;14.20;99.90;;;;;;5015235;28;20237;-74
2023/07/26 03:20:12;;;;;;;6.13;4.50;;;14.20;99.90;;;;;;5015408;28;20693;-73
2023/07/26 03:22:37;;;;;;;9.33;4.70;;;14.10;99.90;;;;;;5015278;28;20172;-74
2023/07/26 03:25:04;;;;;;;4.97;4.30;;;14.10;99.90;;;;;;5015266;28;20218;-74
2023/07/26 03:27:29;;;;;;;5.00;4.30;;;14.10;99.90;;;;;;5013801;28;20184;-74
2023/07/26 03:29:55;;;;;;;5.20;4.70;;;14.10;99.90;;;;;;5014163;28;20176;-74
2023/07/26 03:32:20;;;;;;;4.57;4.17;;;14.10;99.90;;;;;;5014940;28;20255;-73
2023/07/26 03:34:47;;;;;;;7.17;4.73;;;14.20;99.90;;;;;;5015251;28;20575;-74
2023/07/26 03:37:12;;;;;;;7.30;5.10;;;14.20;99.90;;;;;;5015173;28;20699;-74
2023/07/26 03:39:38;;;;;;;7.27;4.80;;;14.20;99.90;;;;;;5013789;28;20465;-75
2023/07/26 03:42:04;;;;;;;8.40;4.67;;;14.20;99.90;;;;;;5014796;28;20180;-74
2023/07/26 03:44:29;;;;;;;6.43;4.70;;;14.20;99.90;;;;;;5014978;28;20208;-74
2023/07/26 03:46:55;;;;;;;9.27;5.07;;;14.20;99.90;;;;;;5013416;28;20176;-73
2023/07/26 03:49:20;;;;;;;6.57;5.00;;;14.30;99.90;;;;;;5014984;28;20583;-73
2023/07/26 03:51:46;;;;;;;6.47;4.93;;;14.30;99.90;;;;;;5014635;28;20191;-74
2023/07/26 03:54:12;;;;;;;5.43;4.93;;;14.20;99.90;;;;;;5013538;28;20188;-74
2023/07/26 03:56:37;;;;;;;6.83;4.90;;;14.20;99.90;;;;;;5013595;28;20190;-74
2023/07/26 03:59:03;;;;;;;6.80;5.80;;;14.20;99.90;;;;;;5013452;28;20219;-73
2023/07/26 04:01:28;;;;;;;8.93;5.33;;;14.00;99.90;;;;;;5014559;28;20246;-74
2023/07/26 04:03:54;;;;;;;5.57;4.87;;;14.00;99.90;;;;;;5013322;28;20192;-74
2023/07/26 04:06:20;;;;;;;5.07;4.60;;;13.90;99.90;;;;;;5014647;28;20176;-74
2023/07/26 04:08:46;;;;;;;9.50;4.67;;;13.80;99.90;;;;;;5013322;28;20225;-73
2023/07/26 04:11:11;;;;;;;8.20;5.40;;;13.80;99.90;;;;;;5014484;28;20200;-73
2023/07/26 04:13:37;;;;;;;6.90;5.57;;;13.70;99.90;;;;;;5013059;28;20646;-75
2023/07/26 04:16:18;;;;;;;5.50;5.00;;;13.70;99.90;;;;;;5014423;28;20187;-76
2023/07/26 04:18:44;;;;;;;11.67;5.43;;;13.60;99.90;;;;;;5013173;28;20214;-75
2023/07/26 04:21:14;;;;;;;6.50;4.43;;;13.30;99.90;;;;;;5013061;28;20180;-75
2023/07/26 04:23:40;;;;;;;6.47;4.70;;;13.00;99.90;;;;;;5012707;28;20290;-75
2023/07/26 04:26:06;;;;;;;5.70;5.07;;;12.90;99.90;;;;;;5013758;28;20216;-75
2023/07/26 04:28:32;;;;;;;4.70;4.30;;;12.90;99.90;;;;;;5013232;28;20688;-75
2023/07/26 04:30:57;;;;;;;4.87;4.33;;;12.90;99.90;;;;;;5014003;28;20199;-75
2023/07/26 04:33:23;;;;;;;5.60;4.20;;;12.90;99.90;;;;;;5013477;28;20176;-76
2023/07/26 04:35:51;;;;;;;6.53;4.17;;;12.90;99.90;;;;;;5014017;28;20179;-75
2023/07/26 04:38:18;;;;;;;6.70;4.57;;;12.90;99.90;;;;;;5013995;28;20279;-75
2023/07/26 04:40:47;;;;;;;5.20;4.70;;;13.00;99.90;;;;;;5014063;28;20544;-74
2023/07/26 04:43:14;;;;;;;7.93;4.90;;;13.00;99.90;;;;;;5013513;28;20674;-76
2023/07/26 04:45:39;;;;;;;5.00;4.50;;;13.10;99.90;;;;;;5013931;28;20579;-76
2023/07/26 04:48:05;;;;;;;5.60;4.73;;;13.10;99.90;;;;;;5012572;28;20200;-75
2023/07/26 04:50:31;;;;;;;4.57;4.17;;;13.20;99.90;;;;;;5012818;28;20562;-76
2023/07/26 04:52:56;;;;;;;4.93;4.53;;;13.10;99.90;;;;;;5012236;28;20238;-74
2023/07/26 04:55:22;;;;;;;8.10;4.60;;;13.10;99.90;;;;;;5012395;28;20183;-76
2023/07/26 04:57:47;;;;;;;5.40;4.77;;;13.10;99.90;;;;;;5012232;28;20196;-75
2023/07/26 05:00:14;;;;;;;5.57;4.40;;;13.20;99.90;;;;;;5012104;28;20215;-76
2023/07/26 05:02:40;;;;;;;4.87;4.37;;;13.20;99.90;;;;;;5013399;28;20206;-75
2023/07/26 05:05:06;;;;;;;5.00;4.53;;;13.30;99.90;;;;;;5013005;28;20293;-76
2023/07/26 05:07:31;;;;;;;4.67;4.30;;;13.30;99.90;;;;;;5011664;28;20195;-76
2023/07/26 05:09:58;;;;;;;5.10;4.50;;;13.40;99.90;;;;;;5012035;28;20226;-75
2023/07/26 05:12:24;;;;;;;5.60;5.10;;;13.50;99.90;;;;;;5012905;28;20596;-75
2023/07/26 05:14:49;;;;;;;7.37;5.70;;;13.60;99.90;;;;;;5012170;28;20323;-75
2023/07/26 05:17:15;;;;;;;6.50;5.27;;;13.70;99.90;;;;;;5013061;28;20215;-75
2023/07/26 05:19:41;;;;;;;6.43;5.93;;;13.80;99.90;;;;;;5011831;28;20180;-75
2023/07/26 05:22:06;;;;;;;5.77;5.27;;;13.80;99.90;;;;;;5010372;28;20190;-76
2023/07/26 05:24:32;;;;;;;6.10;5.47;;;13.80;99.90;;;;;;5010721;28;20212;-76
2023/07/26 05:26:59;;;;;;;5.93;5.47;;;13.80;99.90;;;;;;5012450;28;20242;-76
2023/07/26 05:29:25;;;;;;;6.70;6.00;;;13.80;99.90;;;;;;5012956;28;20188;-74
2023/07/26 05:31:51;;;;;;;10.57;6.27;;;13.80;99.90;;;;;;5012555;28;20258;-76
2023/07/26 05:34:16;;;;;;;6.70;6.10;;;13.80;99.90;;;;;;5012961;28;20570;-76
2023/07/26 05:36:42;;;;;;;7.80;6.30;;;13.90;99.90;;;;;;5013047;28;20222;-75
2023/07/26 05:39:07;;;;;;;9.37;6.60;;;14.00;99.90;;;;;;5012764;28;20238;-76
2023/07/26 05:41:33;;;;;;;7.17;6.53;;;14.10;99.90;;;;;;5012377;28;20172;-76
2023/07/26 05:43:59;;;;;;;7.93;6.37;;;14.20;99.90;;;;;;5011300;28;20196;-76
2023/07/26 05:46:25;;;;;;;7.80;6.60;;;14.40;99.90;;;;;;5012938;28;20637;-75
2023/07/26 05:48:51;;;;;;;8.63;7.03;;;14.40;99.90;;;;;;5011425;28;20199;-75
2023/07/26 05:51:16;;;;;;;9.37;7.10;;;14.50;99.90;;;;;;5012133;28;20250;-75
2023/07/26 05:53:42;;;;;;;8.60;7.80;;;14.50;99.90;;;;;;5012161;28;20600;-75
2023/07/26 05:56:08;;;;;;;8.80;7.13;;;14.60;99.90;;;;;;5011138;28;20172;-76
2023/07/26 05:58:33;;;;;;;9.47;7.60;;;14.60;99.90;;;;;;5012280;28;20252;-75
2023/07/26 06:00:59;;;;;;;7.87;7.17;;;14.70;99.90;;;;;;5012287;28;20179;-74
2023/07/26 06:03:24;;;;;;;10.47;7.50;;;14.70;99.90;;;;;;5011930;28;20253;-75
2023/07/26 06:05:50;;;;;;;8.77;7.83;;;14.80;99.90;;;;;;5012285;28;20271;-76
2023/07/26 06:08:16;;;;;;;11.67;7.77;;;14.90;99.90;;;;;;5012334;28;20211;-75
2023/07/26 06:10:41;;;;;;;8.27;7.57;;;14.90;99.90;;;;;;5012317;28;20168;-75
2023/07/26 06:13:12;;;;;;;9.70;7.63;;;15.00;99.90;;;;;;5011834;28;20173;-75
2023/07/26 06:15:41;;;;;;;11.80;8.17;;;15.10;99.90;;;;;;5010814;28;20187;-75
2023/07/26 06:18:07;;;;;;;11.43;8.10;;;15.30;99.90;;;;;;5012023;28;20645;-75
2023/07/26 06:20:33;;;;;;;10.47;8.00;;;15.70;99.90;;;;;;5012607;28;20255;-76
2023/07/26 06:22:59;;;;;;;9.77;7.50;;;16.20;99.90;;;;;;5011801;28;20523;-75
2023/07/26 06:25:25;;;;;;;7.93;6.30;;;16.60;99.90;;;;;;5012127;28;20206;-75
2023/07/26 06:27:51;;;;;;;7.50;6.33;;;16.80;99.90;;;;;;5011453;28;20234;-75
2023/07/26 06:30:16;;;;;;;6.67;6.03;;;16.60;99.90;;;;;;5011825;28;20180;-75
2023/07/26 06:32:42;;;;;;;6.97;6.23;;;16.60;99.90;;;;;;5011307;28;20176;-75
2023/07/26 06:35:10;;;;;;;6.37;5.73;;;16.50;99.90;;;;;;5011779;28;20172;-74
2023/07/26 06:37:36;;;;;;;7.90;5.73;;;16.30;99.90;;;;;;5011760;28;20246;-75
2023/07/26 06:40:03;;;;;;;6.00;5.20;;;16.20;99.90;;;;;;5011694;28;20206;-75
2023/07/26 06:42:29;;;;;;;8.60;5.73;;;16.10;99.90;;;;;;5012032;28;20172;-75
2023/07/26 06:44:54;;;;;;;8.57;5.87;;;16.20;99.90;;;;;;5011702;28;20196;-75
2023/07/26 06:47:20;;;;;;;5.93;5.20;;;16.40;99.90;;;;;;5011605;28;20187;-75
2023/07/26 06:49:45;;;;;;;6.33;5.50;;;16.60;99.90;;;;;;5011769;28;20207;-76
2023/07/26 06:52:11;;;;;;;7.00;4.83;;;17.00;99.90;;;;;;5010829;28;20259;-75
2023/07/26 06:54:37;;;;;;;6.33;5.30;;;17.60;99.90;;;;;;5011526;28;20612;-75
2023/07/26 06:57:03;;;;;;;7.27;4.87;;;18.10;99.90;;;;;;5011676;28;20689;-74
2023/07/26 06:59:29;;;;;;;6.73;4.37;;;18.30;99.90;;;;;;5010385;28;20196;-75
2023/07/26 07:01:54;;;;;;;5.30;4.47;;;18.70;99.90;;;;;;5011299;28;20168;-74
2023/07/26 07:04:20;;;;;;;5.57;4.77;;;19.20;99.90;;;;;;5011463;28;20288;-75
2023/07/26 07:06:46;;;;;;;5.17;4.27;;;19.40;99.90;;;;;;5010922;28;20188;-74
2023/07/26 07:09:12;;;;;;;6.25;4.55;;;19.70;99.90;;;;;;5010592;28;20282;-74
2023/07/26 07:11:38;;;;;;;6.18;4.55;;;20.00;99.90;;;;;;5011034;28;20170;-73
2023/07/26 07:14:03;;;;;;;5.63;4.43;;;20.40;99.90;;;;;;5011388;28;20180;-73
2023/07/26 07:16:29;;;;;;;8.68;4.85;;;20.70;99.90;;;;;;5011512;28;20172;-72
2023/07/26 07:18:54;;;;;;;10.30;4.88;;;20.90;99.90;;;;;;5011541;28;20562;-73
2023/07/26 07:21:20;;;;;;;5.18;4.63;;;20.90;99.90;;;;;;5011510;28;20179;-73
2023/07/26 07:23:47;;;;;;;5.78;4.53;;;21.10;99.90;;;;;;5010030;28;20262;-72
2023/07/26 07:26:13;;;;;;;7.32;5.50;;;21.40;99.90;;;;;;5010082;28;20176;-71
2023/07/26 07:28:38;;;;;;;6.90;3.95;;;21.50;99.90;;;;;;5011814;28;20246;-72
2023/07/26 07:31:04;;;;;;;6.85;4.05;;;21.70;99.90;;;;;;5011803;28;20173;-74
2023/07/26 07:33:30;;;;;;;6.15;3.63;;;21.90;99.90;;;;;;5010842;28;20203;-72
2023/07/26 07:35:55;;;;;;;7.10;4.95;;;22.20;99.90;;;;;;5010210;28;20573;-73
2023/07/26 07:38:21;;;;;;;6.82;4.25;;;22.30;99.90;;;;;;5011385;28;20206;-72
2023/07/26 07:40:47;;;;;;;4.70;4.30;;;22.50;99.90;;;;;;5010479;28;20187;-73
2023/07/26 07:43:13;;;;;;;5.22;4.20;;;22.70;99.90;;;;;;5009858;28;20191;-74
2023/07/26 07:45:40;;;;;;;4.05;3.67;;;22.90;99.90;;;;;;5009295;28;20212;-73
2023/07/26 07:48:06;;;;;;;3.85;3.55;;;22.80;99.90;;;;;;5011242;28;20570;-73
2023/07/26 07:50:32;;;;;;;6.43;4.55;;;22.70;99.90;;;;;;5005925;28;20198;-73
2023/07/26 07:52:58;;;;;;;7.07;4.85;;;22.50;99.90;;;;;;5010056;28;20601;-72
2023/07/26 07:55:23;;;;;;;5.97;4.75;;;22.30;99.90;;;;;;5010707;28;20225;-73
2023/07/26 07:57:49;;;;;;;5.50;5.03;;;22.10;99.90;;;;;;5009272;28;20678;-73
2023/07/26 08:00:15;;;;;;;7.40;4.70;;;22.00;99.90;;;;;;5010970;28;20180;-74
2023/07/26 08:02:40;;;;;;;9.02;5.28;;;22.40;99.90;;;;;;5010959;28;20177;-72
2023/07/26 08:05:06;;;;;;;5.28;4.65;;;22.80;99.90;;;;;;5013158;28;20541;-73
2023/07/26 08:07:32;;;;;;;8.93;4.80;;;23.20;99.90;;;;;;5014051;28;20246;-72
2023/07/26 08:09:57;;;;;;;8.30;7.70;;;23.60;99.90;;;;;;5014375;28;20263;-73
2023/07/26 08:12:23;;;;;;;7.90;6.30;;;23.50;99.90;;;;;;5012981;28;20748;-72
2023/07/26 08:14:52;;;;;;;5.35;4.85;;;23.20;99.90;;;;;;5014149;28;20192;-72
2023/07/26 08:17:17;;;;;;;5.78;4.18;;;23.10;99.90;;;;;;5011771;28;20680;-72
2023/07/26 08:19:45;;;;;;;5.13;4.47;;;22.60;99.90;;;;;;5014100;28;20266;-72
2023/07/26 08:22:11;;;;;;;6.97;4.80;;;22.70;99.90;;;;;;5013259;28;20719;-72
2023/07/26 08:24:37;;;;;;;5.68;5.10;;;22.90;99.90;;;;;;5013930;28;20212;-73
2023/07/26 08:27:05;;;;;;;9.38;7.13;;;23.20;99.90;;;;;;5013807;28;20203;-71
2023/07/26 08:29:31;;;;;;;5.70;4.63;;;23.30;99.90;;;;;;5013683;28;20192;-72
2023/07/26 08:31:56;;;;;;;5.80;4.28;;;23.30;99.90;;;;;;5012538;28;20172;-72
2023/07/26 08:34:22;;;;;;;7.03;4.40;;;23.40;99.90;;;;;;5013556;28;20679;-73
2023/07/26 08:36:48;;;;;;;5.95;5.40;;;23.30;99.90;;;;;;5012822;28;20176;-72
2023/07/26 08:39:13;;;;;;;5.68;4.18;;;23.00;99.90;;;;;;5013168;28;20212;-72
2023/07/26 08:41:39;;;;;;;5.25;4.25;;;22.60;99.90;;;;;;5012093;28;20203;-72
2023/07/26 08:44:07;;;;;;;7.07;6.47;;;22.20;99.90;;;;;;5013442;28;20673;-72
2023/07/26 08:46:33;;;;;;;7.57;5.10;;;22.00;99.90;;;;;;5013648;28;20646;-73
2023/07/26 08:48:59;;;;;;;7.15;4.20;;;21.70;99.90;;;;;;5013706;28;20238;-73
2023/07/26 08:51:28;;;;;;;6.65;4.07;;;21.40;99.90;;;;;;5011861;28;20200;-72
2023/07/26 08:53:56;;;;;;;5.80;3.83;;;21.40;99.90;;;;;;5013632;28;20180;-72
2023/07/26 08:56:23;;;;;;;7.50;4.05;;;21.50;99.90;;;;;;5008381;28;20188;-73
2023/07/26 08:58:49;;;;;;;6.38;4.85;;;21.30;99.90;;;;;;5013311;28;20196;-73
2023/07/26 09:01:14;;;;;;;4.22;3.72;;;21.40;99.90;;;;;;5013198;28;20180;-71
2023/07/26 09:03:41;;;;;;;6.82;4.43;;;21.60;99.90;;;;;;5013397;28;20196;-71
2023/07/26 09:06:08;;;;;;;5.47;4.93;;;21.90;99.90;;;;;;5012049;28;20596;-72
2023/07/26 09:08:34;;;;;;;6.38;4.90;;;21.90;99.90;;;;;;5013589;28;20604;-72
2023/07/26 09:11:03;;;;;;;6.40;4.93;;;21.60;99.90;;;;;;5013409;28;20172;-72
2023/07/26 09:13:29;;;;;;;9.25;5.70;;;21.40;99.90;;;;;;5012725;28;20637;-71
2023/07/26 09:15:54;;;;;;;7.47;3.92;;;21.20;99.90;;;;;;5013447;28;20171;-71
2023/07/26 09:18:20;;;;;;;6.10;4.40;;;21.10;99.90;;;;;;5011235;28;20553;-71
2023/07/26 09:20:45;;;;;;;4.47;3.88;;;21.50;99.90;;;;;;5013034;28;20543;-72
2023/07/26 09:23:12;;;;;;;10.00;5.25;;;21.70;99.90;;;;;;5012597;28;20175;-72
2023/07/26 09:25:43;;;;;;;8.85;4.80;;;21.70;99.90;;;;;;5012947;28;20199;-71
2023/07/26 09:28:11;;;;;;;8.10;4.72;;;21.50;99.90;;;;;;5012303;28;20700;-72
2023/07/26 09:30:38;;;;;;;4.55;4.05;;;21.50;99.90;;;;;;5011633;28;20172;-71
2023/07/26 09:33:06;;;;;;;4.90;4.35;;;21.50;99.90;;;;;;5012535;28;20175;-72
2023/07/26 09:35:32;;;;;;;5.60;5.10;;;21.60;99.90;;;;;;5013021;28;20168;-72
2023/07/26 09:38:08;;;;;;;7.70;6.10;;;21.90;99.90;;;;;;5012256;28;20204;-72
2023/07/26 09:40:34;;;;;;;5.40;4.35;;;22.40;99.90;;;;;;5013006;28;20172;-72
2023/07/26 09:43:00;;;;;;;4.45;3.80;;;22.70;99.90;;;;;;5011351;28;20176;-71
2023/07/26 09:45:25;;;;;;;5.63;5.07;;;23.40;99.90;;;;;;5012743;28;20295;-71
2023/07/26 09:47:51;;;;;;;4.40;4.05;;;23.90;99.90;;;;;;5012783;28;20192;-71
2023/07/26 09:50:28;;;;;;;9.38;5.70;;;24.20;99.90;;;;;;5012147;28;20192;-71
2023/07/26 09:52:55;;;;;;;6.57;4.93;;;23.90;99.90;;;;;;5011274;28;20267;-71
2023/07/26 09:55:28;;;;;;;6.70;4.10;;;23.10;99.90;;;;;;5010593;28;20192;-70
2023/07/26 09:57:55;;;;;;;5.60;4.40;;;22.30;99.90;;;;;;5012081;28;20251;-71
2023/07/26 10:00:26;;;;;;;5.60;4.80;;;21.20;99.90;;;;;;5012595;28;20179;-72
2023/07/26 10:03:05;;;;;;;5.10;4.57;;;18.80;99.90;;;;;;5010958;28;20180;-71
2023/07/26 10:05:42;;;;;;;8.83;5.30;;;17.00;99.90;;;;;;5012687;28;20689;-73
2023/07/26 10:08:08;;;;;;;11.93;5.60;;;15.90;99.90;;;;;;5012043;28;20207;-73
2023/07/26 10:10:34;;;;;;;6.10;5.47;;;15.30;99.90;;;;;;5012458;28;20732;-74
2023/07/26 10:13:00;;;;;;;13.17;6.13;;;15.00;99.90;;;;;;5012117;28;20168;-75
2023/07/26 10:15:31;;;;;;;6.23;5.57;;;14.90;99.90;;;;;;5012240;28;20183;-75
2023/07/26 10:17:57;;;;;;;8.07;6.87;;;14.80;99.90;;;;;;5011763;28;20204;-75
2023/07/26 10:20:23;;;;;;;6.63;6.03;;;14.90;99.90;;;;;;5010845;28;20282;-75
2023/07/26 10:22:50;;;;;;;9.33;5.87;;;15.20;99.90;;;;;;5010556;28;20230;-75
2023/07/26 10:25:16;;;;;;;6.17;5.30;;;15.50;99.90;;;;;;5011409;28;20235;-75
2023/07/26 10:27:45;;;;;;;6.17;5.60;;;15.90;99.90;;;;;;5011456;28;20238;-75
2023/07/26 10:30:11;;;;;;;5.90;5.33;;;16.50;99.90;;;;;;5011847;28;20179;-75
2023/07/26 10:32:47;;;;;;;6.03;5.03;;;16.80;99.90;;;;;;5011660;28;20539;-74
2023/07/26 10:35:33;;;;;;;5.20;4.70;;;16.60;99.90;;;;;;5010556;28;20176;-75
2023/07/26 10:38:02;;;;;;;8.07;5.67;;;16.50;99.90;;;;;;5011541;28;20249;-75
2023/07/26 10:40:29;;;;;;;5.37;4.83;;;16.30;99.90;;;;;;5010049;28;20172;-74
2023/07/26 10:42:55;;;;;;;7.97;5.23;;;16.20;99.90;;;;;;5011621;28;20176;-75
2023/07/26 10:45:46;;;;;;;6.63;5.20;;;16.10;99.90;;;;;;5010067;28;20597;-75
2023/07/26 10:48:12;;;;;;;12.10;5.87;;;15.90;99.90;;;;;;5010321;28;20723;-74
2023/07/26 10:50:38;;;;;;;6.17;5.60;;;15.80;99.90;;;;;;5011791;28;20172;-75
2023/07/26 10:53:29;;;;;;;7.27;6.40;;;15.70;99.90;;;;;;5011418;28;20179;-75
2023/07/26 10:56:07;;;;;;;15.17;6.97;;;15.60;99.90;;;;;;5010397;28;20175;-75
2023/07/26 10:58:33;;;;;;;7.93;6.93;;;15.50;99.90;;;;;;5011634;28;20192;-75
2023/07/26 11:01:03;;;;;;;13.17;12.07;;;15.50;99.90;;;;;;5011516;28;20172;-75
2023/07/26 11:03:29;;;;;;;11.87;7.30;;;15.60;99.90;;;;;;5011225;28;20172;-75
2023/07/26 11:05:56;;;;;;;8.30;7.53;;;15.60;99.90;;;;;;5011594;28;20180;-75
2023/07/26 11:08:41;;;;;;;10.00;8.43;;;15.70;99.90;;;;;;5011448;28;20990;-75
2023/07/26 11:11:06;;;;;;;11.43;8.07;;;15.70;99.90;;;;;;5010099;28;20187;-75
2023/07/26 11:13:33;;;;;;;9.47;8.57;;;15.70;99.90;;;;;;5011145;28;20176;-76
2023/07/26 11:16:01;;;;;;;12.43;8.57;;;15.90;99.90;;;;;;5009345;28;20176;-75
2023/07/26 11:18:27;;;;;;;11.27;8.60;;;16.20;99.90;;;;;;5010986;28;20192;-75
2023/07/26 11:20:55;;;;;;;12.17;9.33;;;16.80;99.90;;;;;;5010831;28;20250;-75
2023/07/26 11:23:25;;;;;;;11.17;9.20;;;17.70;99.90;;;;;;5011026;28;20639;-75
2023/07/26 11:25:53;;;;;;;10.20;8.13;;;18.30;99.90;;;;;;5010075;28;20176;-75
2023/07/26 11:28:19;;;;;;;8.30;6.50;;;18.70;99.90;;;;;;5011251;28;20188;-75
2023/07/26 11:30:52;;;;;;;8.57;5.90;;;18.70;99.90;;;;;;5010992;28;20177;-75
2023/07/26 11:33:35;;;;;;;6.57;6.00;;;18.40;99.90;;;;;;5011041;28;20172;-75
2023/07/26 11:36:02;;;;;;;7.17;6.40;;;17.90;99.90;;;;;;5011127;28;20653;-75
2023/07/26 11:38:28;;;;;;;7.27;6.63;;;17.50;99.90;;;;;;5014502;28;20191;-74
2023/07/26 11:40:56;;;;;;;8.17;6.50;;;17.50;99.90;;;;;;5015011;28;20179;-74
2023/07/26 11:43:30;;;;;;;7.63;6.93;;;17.80;99.90;;;;;;5014315;28;20175;-75
2023/07/26 11:45:57;;;;;;;7.47;6.77;;;18.30;99.90;;;;;;5014787;28;20226;-74
2023/07/26 11:48:24;;;;;;;5.77;5.20;;;19.00;99.90;;;;;;5014955;28;20188;-74
2023/07/26 11:50:54;;;;;;;5.93;5.03;;;19.60;99.90;;;;;;5015006;28;20165;-75
2023/07/26 11:53:29;;;;;;;5.00;4.60;;;20.00;99.90;;;;;;5014410;28;20176;-75
2023/07/26 11:55:54;;;;;;;5.60;5.10;;;20.50;99.90;;;;;;5014762;28;20184;-75
2023/07/26 11:58:21;;;;;;;7.53;5.40;;;20.60;99.90;;;;;;5014471;28;20196;-75
2023/07/26 12:00:48;;;;;;;5.40;4.95;;;20.70;99.90;;;;;;5013508;28;20172;-74
2023/07/26 12:03:14;;;;;;;4.95;4.43;;;20.90;99.90;;;;;;5014320;28;20255;-75
2023/07/26 12:05:44;;;;;;;5.20;4.22;;;21.20;99.90;;;;;;5014794;28;20204;-74
2023/07/26 12:08:11;;;;;;;7.40;5.03;;;21.50;99.90;;;;;;5014050;28;20251;-74
2023/07/26 12:10:39;;;;;;;4.55;4.13;;;21.90;99.90;;;;;;5014459;28;20468;-74
2023/07/26 12:13:09;;;;;;;5.15;4.63;;;22.30;99.90;;;;;;5014191;28;20594;-75
2023/07/26 12:15:52;;;;;;;4.32;3.92;;;22.70;99.90;;;;;;5013494;28;20180;-75
2023/07/26 12:18:22;;;;;;;4.28;3.85;;;22.80;99.90;;;;;;5014330;28;20219;-75
2023/07/26 12:21:14;;;;;;;6.80;5.22;;;23.20;99.90;;;;;;5014194;28;20254;-74
2023/07/26 12:23:54;;;;;;;4.70;4.28;;;23.60;99.90;;;;;;5009166;28;20184;-75
2023/07/26 12:26:21;;;;;;;4.60;3.70;;;23.70;99.90;;;;;;5014212;28;20168;-75
2023/07/26 12:28:48;;;;;;;4.80;4.32;;;23.50;99.90;;;;;;5014230;28;20226;-75
2023/07/26 12:31:25;;;;;;;5.18;4.25;;;23.50;99.90;;;;;;5012728;28;20164;-75
2023/07/26 12:33:57;;;;;;;7.00;4.50;;;23.90;99.90;;;;;;4994409;28;20255;-74
2023/07/26 12:36:25;;;;;;;4.07;3.78;;;24.40;99.90;;;;;;5009340;28;20688;-74
2023/07/26 12:38:51;;;;;;;4.20;3.80;;;24.30;99.90;;;;;;5013822;28;20196;-73
2023/07/26 12:41:16;;;;;;;6.07;3.72;;;24.00;99.90;;;;;;5012181;28;20183;-72
2023/07/26 12:43:43;;;;;;;3.65;3.35;;;24.00;99.90;;;;;;5013628;28;20179;-71
2023/07/26 12:46:09;;;;;;;3.97;3.38;;;23.50;99.90;;;;;;5013766;28;20173;-72